Time;durP1;ratioP1;P1;durP2;ratioP2;P2;SDS_P1;SDS_P2;PMS_P1;PMS_P2;Temp;Humidity;BMP_temperature;BMP_pressure;BME280_temperature;BME280_humidity;BME280_pressure;Samples;Min_cycle;Max_cycle;Signal;HPM_P1;HPM_P2
2021/08/23 00:01:50;;;;;;;4.25;3.28;;;21.40;85.50;;;;;;4192449;28;20060;-59
2021/08/23 00:04:15;;;;;;;5.40;3.83;;;21.40;86.30;;;;;;4192274;28;20044;-60
2021/08/23 00:06:37;;;;;;;3.75;3.47;;;21.40;86.10;;;;;;4192541;28;20119;-60
2021/08/23 00:08:59;;;;;;;5.22;3.75;;;21.40;85.90;;;;;;4191062;28;20121;-60
2021/08/23 00:11:21;;;;;;;4.43;3.40;;;21.40;85.80;;;;;;4179712;28;20521;-61
2021/08/23 00:13:43;;;;;;;3.80;3.22;;;21.40;87.00;;;;;;4191740;28;20105;-61
2021/08/23 00:16:06;;;;;;;3.97;3.58;;;21.40;86.20;;;;;;4191964;28;20098;-59
2021/08/23 00:18:28;;;;;;;3.80;3.50;;;21.40;86.40;;;;;;4191758;28;20495;-59
2021/08/23 00:20:55;;;;;;;3.50;3.10;;;21.40;86.40;;;;;;4192330;28;20551;-60
2021/08/23 00:23:17;;;;;;;4.40;3.10;;;21.40;86.40;;;;;;4191611;28;20487;-61
2021/08/23 00:25:40;;;;;;;4.63;3.60;;;21.40;86.30;;;;;;4191971;28;20053;-60
2021/08/23 00:28:02;;;;;;;4.82;3.30;;;21.40;86.40;;;;;;4193491;28;20045;-60
2021/08/23 00:30:24;;;;;;;4.32;3.63;;;21.40;86.10;;;;;;4208335;28;20040;-59
2021/08/23 00:32:47;;;;;;;3.30;3.03;;;21.40;86.10;;;;;;4208236;28;20048;-60
2021/08/23 00:35:10;;;;;;;4.93;3.08;;;21.40;86.50;;;;;;4208562;28;20127;-60
2021/08/23 00:37:34;;;;;;;3.20;2.90;;;21.40;86.10;;;;;;4208770;28;20044;-61
2021/08/23 00:39:56;;;;;;;3.50;2.83;;;21.40;86.30;;;;;;4208616;28;20056;-61
2021/08/23 00:42:18;;;;;;;4.03;2.90;;;21.40;86.50;;;;;;4208456;28;20120;-60
2021/08/23 00:44:44;;;;;;;3.60;2.63;;;21.40;86.60;;;;;;4208050;28;20056;-61
2021/08/23 00:47:07;;;;;;;3.00;2.75;;;21.40;85.80;;;;;;4207730;28;20056;-61
2021/08/23 00:49:30;;;;;;;3.80;2.63;;;21.40;86.10;;;;;;4194444;28;20775;-61
2021/08/23 00:51:52;;;;;;;3.83;2.53;;;21.40;86.00;;;;;;4191429;28;20558;-61
2021/08/23 00:54:16;;;;;;;3.33;2.65;;;21.40;85.90;;;;;;4191333;28;20106;-61
2021/08/23 00:56:38;;;;;;;3.33;2.65;;;21.40;85.70;;;;;;4191164;28;20082;-61
2021/08/23 00:59:01;;;;;;;2.30;2.10;;;21.40;85.80;;;;;;4191772;28;20048;-61
2021/08/23 01:01:28;;;;;;;4.57;2.42;;;21.40;86.30;;;;;;4191679;28;20101;-60
2021/08/23 01:03:59;;;;;;;3.50;2.60;;;21.30;85.70;;;;;;4191316;28;20051;-61
2021/08/23 01:06:22;;;;;;;2.60;2.40;;;21.30;85.10;;;;;;4205176;28;20059;-60
2021/08/23 01:08:47;;;;;;;2.72;2.53;;;21.30;85.30;;;;;;4206311;28;20048;-61
2021/08/23 01:11:13;;;;;;;3.35;2.55;;;21.30;85.70;;;;;;4207712;28;20123;-61
2021/08/23 01:13:35;;;;;;;2.70;2.20;;;21.30;85.90;;;;;;4207498;28;20066;-60
2021/08/23 01:15:57;;;;;;;3.47;2.20;;;21.30;85.60;;;;;;4207897;28;20071;-61
2021/08/23 01:18:19;;;;;;;5.65;2.50;;;21.40;85.70;;;;;;4206069;28;20148;-61
2021/08/23 01:20:44;;;;;;;2.65;2.15;;;21.30;86.20;;;;;;4198272;28;20494;-60
2021/08/23 01:23:09;;;;;;;3.08;2.10;;;21.30;85.20;;;;;;4191052;28;20067;-60
2021/08/23 01:25:33;;;;;;;2.83;2.15;;;21.30;85.40;;;;;;4191118;28;20486;-59
2021/08/23 01:28:11;;;;;;;2.97;2.38;;;21.30;85.50;;;;;;4191027;28;20063;-61
2021/08/23 01:30:44;;;;;;;2.60;2.15;;;21.30;84.80;;;;;;4191413;28;20147;-60
2021/08/23 01:33:08;;;;;;;2.35;2.00;;;21.30;84.70;;;;;;4190910;28;20041;-61
2021/08/23 01:35:29;;;;;;;1.65;1.55;;;21.30;86.20;;;;;;4197818;28;20048;-61
2021/08/23 01:37:52;;;;;;;2.30;1.77;;;21.30;85.70;;;;;;4206349;28;20054;-61
2021/08/23 01:40:14;;;;;;;2.45;1.90;;;21.30;84.80;;;;;;4191446;28;20109;-60
2021/08/23 01:42:36;;;;;;;2.08;1.98;;;21.30;85.20;;;;;;4190807;28;20518;-61
2021/08/23 01:44:59;;;;;;;4.38;1.90;;;21.30;85.50;;;;;;4179942;28;20055;-60
2021/08/23 01:47:21;;;;;;;3.03;1.90;;;21.30;85.60;;;;;;4190803;28;20057;-60
2021/08/23 01:49:45;;;;;;;5.68;2.20;;;21.20;85.30;;;;;;4191012;28;20075;-61
2021/08/23 01:52:09;;;;;;;2.65;1.50;;;21.30;85.60;;;;;;4174550;28;20754;-61
2021/08/23 01:54:31;;;;;;;2.60;1.88;;;21.30;85.40;;;;;;4174382;28;20517;-60
2021/08/23 01:56:53;;;;;;;4.07;2.50;;;21.20;85.70;;;;;;4174563;28;20049;-60
2021/08/23 01:59:15;;;;;;;2.35;1.58;;;21.30;85.80;;;;;;4190680;28;20486;-61
2021/08/23 02:01:37;;;;;;;2.00;1.90;;;21.30;86.00;;;;;;4189615;28;20487;-60
2021/08/23 02:03:59;;;;;;;3.13;2.15;;;21.20;85.90;;;;;;4190877;28;20074;-60
2021/08/23 02:06:23;;;;;;;2.63;2.00;;;21.30;85.90;;;;;;4205863;28;20056;-60
2021/08/23 02:08:45;;;;;;;2.28;1.73;;;21.20;85.80;;;;;;4199179;28;20055;-60
2021/08/23 02:11:07;;;;;;;2.42;2.22;;;21.20;85.90;;;;;;4209953;28;20062;-60
2021/08/23 02:13:30;;;;;;;2.33;2.13;;;21.20;85.80;;;;;;4210440;28;20493;-60
2021/08/23 02:15:51;;;;;;;2.78;2.38;;;21.20;85.80;;;;;;4210877;28;20108;-61
2021/08/23 02:18:14;;;;;;;2.60;2.40;;;21.20;85.80;;;;;;4201747;28;20056;-59
2021/08/23 02:20:36;;;;;;;2.60;2.40;;;21.20;85.80;;;;;;4193935;28;20048;-61
2021/08/23 02:22:59;;;;;;;4.03;2.17;;;21.30;85.70;;;;;;4194076;28;20055;-61
2021/08/23 02:25:22;;;;;;;2.75;2.45;;;21.20;85.60;;;;;;4193458;28;20055;-60
2021/08/23 02:27:44;;;;;;;2.15;2.05;;;21.30;85.80;;;;;;4197449;28;20493;-60
2021/08/23 02:30:06;;;;;;;2.55;2.35;;;21.20;85.80;;;;;;4210224;28;20044;-61
2021/08/23 02:32:28;;;;;;;4.68;2.70;;;21.20;85.70;;;;;;4210360;28;20101;-60
2021/08/23 02:34:50;;;;;;;4.30;2.35;;;21.30;86.80;;;;;;4209884;28;20048;-61
2021/08/23 02:37:12;;;;;;;5.13;2.33;;;21.20;85.80;;;;;;4208161;28;20131;-61
2021/08/23 02:39:36;;;;;;;2.78;2.30;;;21.20;85.80;;;;;;4193729;28;20128;-60
2021/08/23 02:41:58;;;;;;;2.95;2.60;;;21.20;85.70;;;;;;4193823;28;20071;-60
2021/08/23 02:44:20;;;;;;;2.47;2.15;;;21.30;85.90;;;;;;4193409;28;20135;-61
2021/08/23 02:46:43;;;;;;;2.30;2.20;;;21.20;85.80;;;;;;4193275;28;20059;-61
2021/08/23 02:49:05;;;;;;;3.80;2.10;;;21.20;85.80;;;;;;4177108;28;20067;-61
2021/08/23 02:51:28;;;;;;;3.25;2.70;;;21.20;85.90;;;;;;4177103;28;21070;-61
2021/08/23 02:53:50;;;;;;;2.47;2.28;;;21.20;85.70;;;;;;4176604;28;20492;-61
2021/08/23 02:56:13;;;;;;;3.33;2.40;;;21.20;86.40;;;;;;4176884;28;20565;-61
2021/08/23 02:58:35;;;;;;;3.63;1.90;;;21.20;85.60;;;;;;4200462;28;20048;-61
2021/08/23 03:00:57;;;;;;;2.53;2.03;;;21.20;85.70;;;;;;4203871;28;20494;-60
2021/08/23 03:03:19;;;;;;;4.38;1.95;;;21.20;85.80;;;;;;4193263;28;20114;-61
2021/08/23 03:05:40;;;;;;;4.07;1.90;;;21.20;85.70;;;;;;4203836;28;20040;-60
2021/08/23 03:08:03;;;;;;;3.38;2.30;;;21.20;85.30;;;;;;4208928;28;20101;-61
2021/08/23 03:10:25;;;;;;;2.80;2.00;;;21.20;85.70;;;;;;4208447;28;20044;-60
2021/08/23 03:12:48;;;;;;;3.67;2.40;;;21.20;85.30;;;;;;4194240;28;20072;-60
2021/08/23 03:15:11;;;;;;;2.38;1.95;;;21.20;85.30;;;;;;4193412;28;20540;-60
2021/08/23 03:17:34;;;;;;;3.90;2.35;;;21.20;84.20;;;;;;4208495;28;20051;-60
2021/08/23 03:19:57;;;;;;;3.42;1.98;;;21.20;84.10;;;;;;4209210;28;20101;-61
2021/08/23 03:22:19;;;;;;;2.75;1.90;;;21.20;84.90;;;;;;4207222;28;20082;-61
2021/08/23 03:24:40;;;;;;;2.92;1.83;;;21.20;84.80;;;;;;4192957;28;20044;-61
2021/08/23 03:27:03;;;;;;;3.60;1.55;;;21.20;84.70;;;;;;4192325;28;20056;-61
2021/08/23 03:29:27;;;;;;;2.60;1.98;;;21.20;85.50;;;;;;4192840;28;20048;-61
2021/08/23 03:31:50;;;;;;;1.90;1.73;;;21.20;84.60;;;;;;4192745;28;20556;-61
2021/08/23 03:34:12;;;;;;;2.92;2.10;;;21.10;85.30;;;;;;4196442;28;20101;-60
2021/08/23 03:36:36;;;;;;;2.97;1.90;;;21.10;85.30;;;;;;4209027;28;20103;-61
2021/08/23 03:39:00;;;;;;;3.90;1.77;;;21.10;85.40;;;;;;4209358;28;20490;-60
2021/08/23 03:41:23;;;;;;;5.00;1.83;;;21.10;85.50;;;;;;4209583;28;20055;-61
2021/08/23 03:43:45;;;;;;;2.28;2.08;;;21.10;85.20;;;;;;4193201;28;20060;-60
2021/08/23 03:46:08;;;;;;;3.70;2.28;;;21.10;85.40;;;;;;4206713;28;20051;-60
2021/08/23 03:48:30;;;;;;;2.90;1.80;;;21.10;85.30;;;;;;4208993;28;20052;-61
2021/08/23 03:50:52;;;;;;;2.50;1.63;;;21.10;85.50;;;;;;4209156;28;20047;-61
2021/08/23 03:53:14;;;;;;;6.65;2.40;;;21.10;85.40;;;;;;4197479;28;20052;-60
2021/08/23 03:55:36;;;;;;;1.77;1.65;;;21.10;85.30;;;;;;4207279;28;20135;-61
2021/08/23 03:57:58;;;;;;;2.15;1.70;;;21.10;85.30;;;;;;4208866;28;20062;-60
2021/08/23 04:00:20;;;;;;;2.05;1.70;;;21.10;85.50;;;;;;4209408;28;20052;-61
2021/08/23 04:02:45;;;;;;;1.48;1.38;;;21.10;85.60;;;;;;4208982;28;20059;-60
2021/08/23 04:05:08;;;;;;;1.75;1.65;;;21.10;85.50;;;;;;4206235;28;20109;-61
2021/08/23 04:07:30;;;;;;;3.03;1.65;;;21.10;85.60;;;;;;4208988;28;20524;-61
2021/08/23 04:09:52;;;;;;;4.13;2.10;;;21.10;85.70;;;;;;4208995;28;20048;-61
2021/08/23 04:12:14;;;;;;;2.88;1.80;;;21.10;85.40;;;;;;4204623;28;20052;-60
2021/08/23 04:14:36;;;;;;;5.43;2.10;;;21.10;85.40;;;;;;4191851;28;20498;-60
2021/08/23 04:16:58;;;;;;;6.13;1.85;;;21.10;85.60;;;;;;4192021;28;20079;-59
2021/08/23 04:19:22;;;;;;;2.50;2.25;;;21.10;85.60;;;;;;4191942;28;20059;-60
2021/08/23 04:21:44;;;;;;;2.70;1.75;;;21.10;85.40;;;;;;4192020;28;20505;-60
2021/08/23 04:24:06;;;;;;;2.10;1.63;;;21.10;85.40;;;;;;4185687;28;20044;-60
2021/08/23 04:26:29;;;;;;;1.75;1.52;;;21.10;85.60;;;;;;4208107;28;20539;-59
2021/08/23 04:28:51;;;;;;;3.13;1.85;;;21.10;85.70;;;;;;4175355;28;20064;-60
2021/08/23 04:31:13;;;;;;;2.80;1.48;;;21.10;85.50;;;;;;4175083;28;20397;-59
2021/08/23 04:33:35;;;;;;;2.15;1.48;;;21.10;85.60;;;;;;4174956;28;20410;-60
2021/08/23 04:35:59;;;;;;;4.00;1.77;;;21.10;86.10;;;;;;4175599;28;20099;-61
2021/08/23 04:38:21;;;;;;;4.38;2.20;;;21.10;85.60;;;;;;4175173;28;20127;-60
2021/08/23 04:40:43;;;;;;;1.83;1.60;;;21.10;85.80;;;;;;4175028;28;20057;-61
2021/08/23 04:43:05;;;;;;;3.72;1.60;;;21.10;85.80;;;;;;4188778;28;20491;-61
2021/08/23 04:45:27;;;;;;;2.95;1.58;;;21.10;85.40;;;;;;4191607;28;20063;-61
2021/08/23 04:47:49;;;;;;;2.05;1.70;;;21.10;85.70;;;;;;4192133;28;20411;-60
2021/08/23 04:50:12;;;;;;;3.72;1.90;;;21.10;85.70;;;;;;4191515;28;20132;-61
2021/08/23 04:52:42;;;;;;;3.83;1.77;;;21.10;85.60;;;;;;4196336;28;20131;-61
2021/08/23 04:55:04;;;;;;;2.92;1.40;;;21.10;85.40;;;;;;4194821;28;20044;-61
2021/08/23 04:57:26;;;;;;;2.00;1.40;;;21.10;85.70;;;;;;4191463;28;20508;-61
2021/08/23 04:59:49;;;;;;;2.70;1.98;;;21.10;85.70;;;;;;4192242;28;20504;-61
2021/08/23 05:02:13;;;;;;;3.90;1.48;;;21.10;85.60;;;;;;4208145;28;20498;-60
2021/08/23 05:04:37;;;;;;;2.28;1.50;;;21.10;85.70;;;;;;4203502;28;20055;-61
2021/08/23 05:06:59;;;;;;;4.03;1.80;;;21.10;85.00;;;;;;4191192;28;20058;-59
2021/08/23 05:09:23;;;;;;;2.42;1.40;;;21.10;85.50;;;;;;4191173;28;20522;-60
2021/08/23 05:11:45;;;;;;;3.80;1.85;;;21.10;85.20;;;;;;4191426;28;20054;-60
2021/08/23 05:14:07;;;;;;;2.65;1.70;;;21.10;85.20;;;;;;4191649;28;20055;-61
2021/08/23 05:16:29;;;;;;;1.98;1.52;;;21.10;85.40;;;;;;4191240;28;20052;-60
2021/08/23 05:18:52;;;;;;;2.28;1.25;;;21.10;84.60;;;;;;4191078;28;20079;-60
2021/08/23 05:21:14;;;;;;;5.00;2.03;;;21.10;85.30;;;;;;4191067;28;20079;-62
2021/08/23 05:23:37;;;;;;;3.85;1.73;;;21.10;85.90;;;;;;4191208;28;20433;-61
2021/08/23 05:26:00;;;;;;;3.40;1.75;;;21.10;86.10;;;;;;4174422;28;20057;-59
2021/08/23 05:28:26;;;;;;;3.70;1.55;;;21.10;86.00;;;;;;4205806;28;20051;-59
2021/08/23 05:30:50;;;;;;;3.13;1.42;;;21.10;86.30;;;;;;4207881;28;20058;-59
2021/08/23 05:33:12;;;;;;;4.07;1.60;;;21.10;85.70;;;;;;4207317;28;23102;-59
2021/08/23 05:35:34;;;;;;;3.90;1.73;;;21.20;85.40;;;;;;4207410;28;20517;-60
2021/08/23 05:37:56;;;;;;;3.08;2.08;;;21.20;85.10;;;;;;4192094;28;20044;-59
2021/08/23 05:40:22;;;;;;;5.63;1.90;;;21.20;84.50;;;;;;4191147;28;20049;-59
2021/08/23 05:42:47;;;;;;;2.42;1.63;;;21.20;84.40;;;;;;4203408;28;20044;-59
2021/08/23 05:45:10;;;;;;;3.22;1.80;;;21.20;84.50;;;;;;4195912;28;20066;-62
2021/08/23 05:47:32;;;;;;;2.53;1.75;;;21.20;84.30;;;;;;4194494;28;20105;-60
2021/08/23 05:49:54;;;;;;;4.68;1.70;;;21.20;84.30;;;;;;4194377;28;20060;-61
2021/08/23 05:52:16;;;;;;;2.47;1.83;;;21.20;84.30;;;;;;4194550;28;20048;-60
2021/08/23 05:54:39;;;;;;;3.50;1.80;;;21.10;84.40;;;;;;4202500;28;20051;-61
2021/08/23 05:57:02;;;;;;;6.75;1.88;;;21.20;84.80;;;;;;4210100;28;20734;-60
2021/08/23 05:59:25;;;;;;;4.18;1.80;;;21.20;84.50;;;;;;4211628;28;20055;-60
2021/08/23 06:01:53;;;;;;;4.10;1.60;;;21.10;84.60;;;;;;4210942;28;20054;-60
2021/08/23 06:04:19;;;;;;;1.60;1.33;;;21.20;84.70;;;;;;4210976;28;20059;-60
2021/08/23 06:06:41;;;;;;;2.88;1.40;;;21.20;84.60;;;;;;4200808;28;20565;-61
2021/08/23 06:09:04;;;;;;;2.03;1.67;;;21.10;84.90;;;;;;4193919;28;20135;-60
2021/08/23 06:11:26;;;;;;;4.20;1.60;;;21.10;84.90;;;;;;4193894;28;20516;-60
2021/08/23 06:13:48;;;;;;;3.55;1.40;;;21.10;85.00;;;;;;4209010;28;20114;-60
2021/08/23 06:16:11;;;;;;;5.13;1.52;;;21.10;85.10;;;;;;4189002;28;20048;-61
2021/08/23 06:18:33;;;;;;;2.53;1.60;;;21.10;84.90;;;;;;4202867;28;20044;-60
2021/08/23 06:20:57;;;;;;;2.85;1.60;;;21.10;84.90;;;;;;4210086;28;20439;-61
2021/08/23 06:23:20;;;;;;;2.22;1.40;;;21.10;84.70;;;;;;4191535;28;20067;-61
2021/08/23 06:25:42;;;;;;;1.73;1.40;;;21.10;84.70;;;;;;4193930;28;20058;-61
2021/08/23 06:28:05;;;;;;;2.70;1.60;;;21.10;84.70;;;;;;4193924;28;20118;-61
2021/08/23 06:30:27;;;;;;;3.33;1.65;;;21.10;84.70;;;;;;4193666;28;20094;-60
2021/08/23 06:32:50;;;;;;;3.20;1.60;;;21.10;84.40;;;;;;4204803;28;20387;-61
2021/08/23 06:35:12;;;;;;;3.38;1.70;;;21.20;84.60;;;;;;4195369;28;20499;-61
2021/08/23 06:37:36;;;;;;;5.10;1.80;;;21.20;84.50;;;;;;4193362;28;20064;-61
2021/08/23 06:40:00;;;;;;;1.92;1.70;;;21.10;84.00;;;;;;4183200;28;20457;-60
2021/08/23 06:42:22;;;;;;;2.47;1.20;;;21.10;83.80;;;;;;4195923;28;20604;-60
2021/08/23 06:44:45;;;;;;;2.67;1.50;;;21.10;83.90;;;;;;4182405;28;20410;-60
2021/08/23 06:47:07;;;;;;;2.50;1.35;;;21.10;84.00;;;;;;4204673;28;20097;-60
2021/08/23 06:49:30;;;;;;;2.70;1.50;;;21.20;84.00;;;;;;4193469;28;20102;-61
2021/08/23 06:51:52;;;;;;;1.73;1.50;;;21.10;84.00;;;;;;4202509;28;20052;-60
2021/08/23 06:54:14;;;;;;;1.63;1.42;;;21.20;84.00;;;;;;4200304;28;20055;-60
2021/08/23 06:56:37;;;;;;;3.35;1.42;;;21.10;83.80;;;;;;4205014;28;20084;-60
2021/08/23 06:58:59;;;;;;;2.55;1.75;;;21.10;84.00;;;;;;4197042;28;20537;-59
2021/08/23 07:01:23;;;;;;;4.97;1.83;;;21.20;83.80;;;;;;4192861;28;20068;-60
2021/08/23 07:03:46;;;;;;;2.08;1.33;;;21.10;84.40;;;;;;4192076;28;20048;-61
2021/08/23 07:06:09;;;;;;;4.22;1.83;;;21.20;84.60;;;;;;4193148;28;20052;-59
2021/08/23 07:08:38;;;;;;;2.03;1.30;;;21.20;84.60;;;;;;4193600;28;20477;-59
2021/08/23 07:11:01;;;;;;;2.40;1.50;;;21.20;85.20;;;;;;4209030;28;20052;-59
2021/08/23 07:13:23;;;;;;;2.25;1.40;;;21.20;85.20;;;;;;4209185;28;20494;-59
2021/08/23 07:15:45;;;;;;;2.63;1.60;;;21.30;84.70;;;;;;4203693;28;20048;-58
2021/08/23 07:18:07;;;;;;;2.85;1.58;;;21.30;84.30;;;;;;4201280;28;20063;-59
2021/08/23 07:20:30;;;;;;;2.60;1.42;;;21.40;84.30;;;;;;4195563;28;20402;-58
2021/08/23 07:22:53;;;;;;;1.60;1.50;;;21.40;84.10;;;;;;4183427;28;20048;-59
2021/08/23 07:25:15;;;;;;;2.50;1.50;;;21.50;83.70;;;;;;4200601;28;20056;-59
2021/08/23 07:27:37;;;;;;;1.85;1.50;;;21.50;84.00;;;;;;4193216;28;20101;-59
2021/08/23 07:30:00;;;;;;;1.05;1.05;;;21.50;82.80;;;;;;4204466;28;20052;-59
2021/08/23 07:32:22;;;;;;;2.40;1.30;;;21.60;82.20;;;;;;4195995;28;20051;-59
2021/08/23 07:34:45;;;;;;;3.85;1.48;;;21.60;81.00;;;;;;4195316;28;20044;-58
2021/08/23 07:37:07;;;;;;;2.38;1.40;;;21.60;80.60;;;;;;4191793;28;20041;-59
2021/08/23 07:39:31;;;;;;;1.35;1.20;;;21.60;80.70;;;;;;4191354;28;20121;-58
2021/08/23 07:41:53;;;;;;;1.85;1.05;;;21.60;81.10;;;;;;4192811;28;20487;-60
2021/08/23 07:44:15;;;;;;;6.13;1.48;;;21.70;80.90;;;;;;4192551;28;20056;-59
2021/08/23 07:46:38;;;;;;;4.13;1.17;;;21.70;80.80;;;;;;4203089;28;20044;-60
2021/08/23 07:49:00;;;;;;;3.05;1.30;;;21.80;80.50;;;;;;4192558;28;20059;-59
2021/08/23 07:51:23;;;;;;;4.88;1.38;;;21.80;80.60;;;;;;4192536;28;20395;-59
2021/08/23 07:53:45;;;;;;;2.28;1.20;;;21.80;80.30;;;;;;4195193;28;20121;-59
2021/08/23 07:56:10;;;;;;;3.05;1.50;;;21.90;80.00;;;;;;4192267;28;20048;-59
2021/08/23 07:58:33;;;;;;;1.83;1.20;;;21.90;80.40;;;;;;4203319;28;20116;-59
2021/08/23 08:00:55;;;;;;;2.95;1.38;;;21.90;79.50;;;;;;4207767;28;20605;-59
2021/08/23 08:03:17;;;;;;;4.88;1.45;;;21.90;78.30;;;;;;4207227;28;20047;-59
2021/08/23 08:05:39;;;;;;;1.27;1.13;;;21.90;77.80;;;;;;4208582;28;20055;-60
2021/08/23 08:08:03;;;;;;;2.03;1.30;;;22.00;79.10;;;;;;4206003;28;20048;-59
2021/08/23 08:10:25;;;;;;;1.27;1.17;;;22.00;78.30;;;;;;4188740;28;20048;-60
2021/08/23 08:12:49;;;;;;;3.10;1.55;;;22.00;79.80;;;;;;4191903;28;20522;-60
2021/08/23 08:15:12;;;;;;;2.17;0.90;;;22.10;79.30;;;;;;4191905;28;20525;-60
2021/08/23 08:17:35;;;;;;;1.38;1.20;;;22.00;78.20;;;;;;4192090;28;20040;-60
2021/08/23 08:19:57;;;;;;;1.48;0.95;;;22.10;78.70;;;;;;4192767;28;20048;-59
2021/08/23 08:22:19;;;;;;;2.10;1.00;;;22.10;74.80;;;;;;4191975;28;20804;-59
2021/08/23 08:24:42;;;;;;;2.15;0.85;;;22.10;74.20;;;;;;4191538;28;20044;-59
2021/08/23 08:27:04;;;;;;;1.38;1.00;;;22.10;73.40;;;;;;4200860;28;20062;-59
2021/08/23 08:29:28;;;;;;;1.10;1.00;;;22.20;71.20;;;;;;4191935;28;20567;-60
2021/08/23 08:31:50;;;;;;;2.70;1.25;;;22.20;69.50;;;;;;4191823;28;20422;-59
2021/08/23 08:34:13;;;;;;;0.70;0.70;;;22.20;70.20;;;;;;4191910;28;20501;-59
2021/08/23 08:36:35;;;;;;;0.85;0.85;;;22.20;69.70;;;;;;4191905;28;20051;-59
2021/08/23 08:38:57;;;;;;;1.85;0.90;;;22.20;68.20;;;;;;4186187;28;20067;-59
2021/08/23 08:41:19;;;;;;;3.90;1.02;;;22.30;67.30;;;;;;4207816;28;20052;-59
2021/08/23 08:43:41;;;;;;;1.08;0.90;;;22.30;66.60;;;;;;4208108;28;20044;-59
2021/08/23 08:46:06;;;;;;;1.63;0.70;;;22.30;67.10;;;;;;4208527;28;20070;-59
2021/08/23 08:48:30;;;;;;;1.33;0.75;;;22.30;66.80;;;;;;4208255;28;20444;-59
2021/08/23 08:50:52;;;;;;;1.17;1.08;;;22.40;65.40;;;;;;4176028;28;20048;-60
2021/08/23 08:53:14;;;;;;;1.10;0.80;;;22.40;65.10;;;;;;4200813;28;20131;-59
2021/08/23 08:55:37;;;;;;;1.05;0.95;;;22.40;65.30;;;;;;4191623;28;20449;-60
2021/08/23 08:57:59;;;;;;;0.77;0.77;;;22.40;65.30;;;;;;4191515;28;20498;-60
2021/08/23 09:00:21;;;;;;;0.90;0.70;;;22.40;66.50;;;;;;4191415;28;20044;-59
2021/08/23 09:02:56;;;;;;;1.33;0.95;;;22.40;66.00;;;;;;4190606;28;20044;-59
2021/08/23 09:05:18;;;;;;;1.45;0.95;;;22.50;64.90;;;;;;4191011;28;20048;-60
2021/08/23 09:07:40;;;;;;;0.90;0.70;;;22.50;64.30;;;;;;4191300;28;20052;-59
2021/08/23 09:10:18;;;;;;;0.80;0.68;;;22.50;62.90;;;;;;4174436;28;20053;-60
2021/08/23 09:12:40;;;;;;;1.20;1.05;;;22.50;63.20;;;;;;4190896;28;20090;-60
2021/08/23 09:15:04;;;;;;;1.00;0.93;;;22.50;64.20;;;;;;4194957;28;20048;-60
2021/08/23 09:17:27;;;;;;;1.95;0.80;;;22.50;63.40;;;;;;4196568;28;20056;-60
2021/08/23 09:19:59;;;;;;;0.77;0.77;;;22.50;65.30;;;;;;4180945;28;20612;-60
2021/08/23 09:22:25;;;;;;;2.00;0.80;;;22.50;62.60;;;;;;4205690;28;20477;-60
2021/08/23 09:24:48;;;;;;;1.55;0.77;;;22.50;60.40;;;;;;4198816;28;20040;-59
2021/08/23 09:27:12;;;;;;;0.70;0.70;;;22.60;61.00;;;;;;4196226;28;20044;-61
2021/08/23 09:29:56;;;;;;;6.07;1.10;;;22.60;60.60;;;;;;4194464;28;20135;-60
2021/08/23 09:32:19;;;;;;;0.70;0.70;;;22.60;60.80;;;;;;4196193;28;20086;-59
2021/08/23 09:34:45;;;;;;;1.00;0.77;;;22.60;59.90;;;;;;4206157;28;20131;-59
2021/08/23 09:37:15;;;;;;;0.73;0.63;;;22.60;60.10;;;;;;4201666;28;20492;-59
2021/08/23 09:39:38;;;;;;;0.70;0.70;;;22.60;61.30;;;;;;4204764;28;20097;-59
2021/08/23 09:42:08;;;;;;;1.25;0.77;;;22.70;60.50;;;;;;4207679;28;20562;-60
2021/08/23 09:44:35;;;;;;;0.70;0.70;;;22.60;59.00;;;;;;4198475;28;20054;-59
2021/08/23 09:47:00;;;;;;;1.58;1.13;;;22.70;58.70;;;;;;4206048;28;20059;-60
2021/08/23 09:49:22;;;;;;;0.98;0.90;;;22.70;59.60;;;;;;4193370;28;20656;-60
2021/08/23 09:51:47;;;;;;;2.50;0.70;;;22.70;59.70;;;;;;4197786;28;20044;-61
2021/08/23 09:54:13;;;;;;;1.88;1.00;;;22.70;61.00;;;;;;4193870;28;20190;-60
2021/08/23 09:56:40;;;;;;;1.15;1.05;;;22.70;60.60;;;;;;4206678;28;20036;-60
2021/08/23 09:59:03;;;;;;;2.03;1.20;;;22.70;62.80;;;;;;4196251;28;20055;-61
2021/08/23 10:01:26;;;;;;;0.93;0.93;;;22.80;60.50;;;;;;4207519;28;20044;-61
2021/08/23 10:03:48;;;;;;;1.50;0.93;;;22.80;61.40;;;;;;4202125;28;20052;-60
2021/08/23 10:06:12;;;;;;;1.85;0.93;;;22.80;59.30;;;;;;4207333;28;20078;-60
2021/08/23 10:08:34;;;;;;;1.52;0.80;;;22.80;58.60;;;;;;4174537;28;20064;-60
2021/08/23 10:10:58;;;;;;;0.85;0.85;;;22.80;60.00;;;;;;4190542;28;20059;-61
2021/08/23 10:13:21;;;;;;;1.52;1.02;;;22.80;59.50;;;;;;4189450;28;20064;-61
2021/08/23 10:15:44;;;;;;;1.52;1.20;;;22.90;59.30;;;;;;4191757;28;20804;-61
2021/08/23 10:18:08;;;;;;;3.38;1.20;;;22.90;58.30;;;;;;4202045;28;20105;-60
2021/08/23 10:20:30;;;;;;;1.10;1.00;;;22.90;59.00;;;;;;4199883;28;20047;-61
2021/08/23 10:22:53;;;;;;;1.42;1.10;;;22.90;58.40;;;;;;4189060;28;20554;-60
2021/08/23 10:25:18;;;;;;;1.48;0.98;;;22.90;57.70;;;;;;4200496;28;20048;-61
2021/08/23 10:27:42;;;;;;;1.02;1.02;;;23.00;58.00;;;;;;4207049;28;20567;-60
2021/08/23 10:30:05;;;;;;;2.25;1.10;;;23.00;60.30;;;;;;4207946;28;20052;-61
2021/08/23 10:32:34;;;;;;;2.85;0.90;;;23.00;59.50;;;;;;4203238;28;20048;-60
2021/08/23 10:34:57;;;;;;;1.23;1.13;;;23.00;58.80;;;;;;4196012;28;20074;-62
2021/08/23 10:37:21;;;;;;;1.23;1.10;;;23.00;59.00;;;;;;4193523;28;20128;-61
2021/08/23 10:39:43;;;;;;;2.50;1.20;;;23.00;55.20;;;;;;4193204;28;20044;-61
2021/08/23 10:42:11;;;;;;;1.08;0.98;;;23.10;55.70;;;;;;4193458;28;20178;-60
2021/08/23 10:44:35;;;;;;;1.00;1.00;;;23.10;57.10;;;;;;4198511;28;20048;-61
2021/08/23 10:47:05;;;;;;;1.02;1.00;;;23.10;57.30;;;;;;4205973;28;20445;-61
2021/08/23 10:49:37;;;;;;;1.13;1.02;;;23.10;57.00;;;;;;4203254;28;20052;-61
2021/08/23 10:52:00;;;;;;;;;;;23.10;57.00;;;;;;4198366;28;20513;-60
2021/08/23 10:54:24;;;;;;;1.25;1.15;;;23.10;58.40;;;;;;4200793;28;20297;-61
2021/08/23 10:57:04;;;;;;;;;;;23.10;58.60;;;;;;4196524;28;20067;-60
2021/08/23 10:59:40;;;;;;;3.38;0.98;;;23.10;57.20;;;;;;4194081;28;19924;-61
2021/08/23 11:02:03;;;;;;;1.10;0.90;;;23.10;56.00;;;;;;4194442;28;20044;-61
2021/08/23 11:04:33;;;;;;;1.15;0.80;;;23.10;56.80;;;;;;4208192;28;20048;-61
2021/08/23 11:06:55;;;;;;;0.73;0.73;;;23.20;57.90;;;;;;4209863;28;20055;-61
2021/08/23 11:09:17;;;;;;;0.77;0.77;;;23.20;58.80;;;;;;4199788;28;20111;-61
2021/08/23 11:11:41;;;;;;;1.20;0.80;;;23.20;59.40;;;;;;4192899;28;20130;-61
2021/08/23 11:14:04;;;;;;;0.80;0.75;;;23.20;59.80;;;;;;4203031;28;20062;-61
2021/08/23 11:16:28;;;;;;;1.08;0.98;;;23.30;59.00;;;;;;4206864;28;20698;-60
2021/08/23 11:18:50;;;;;;;0.93;0.80;;;23.30;58.90;;;;;;4198264;28;20042;-61
2021/08/23 11:21:17;;;;;;;0.93;0.93;;;23.30;58.60;;;;;;4205319;28;20118;-61
2021/08/23 11:23:39;;;;;;;1.10;0.98;;;23.30;59.80;;;;;;4192946;28;20051;-61
2021/08/23 11:26:02;;;;;;;1.92;0.82;;;23.30;58.50;;;;;;4202049;28;20059;-61
2021/08/23 11:28:27;;;;;;;1.35;0.88;;;23.40;59.40;;;;;;4208145;28;20505;-61
2021/08/23 11:30:54;;;;;;;2.05;1.00;;;23.40;59.40;;;;;;4206918;28;20664;-61
2021/08/23 11:33:27;;;;;;;2.58;0.90;;;23.40;59.30;;;;;;4193198;28;20044;-60
2021/08/23 11:35:49;;;;;;;1.23;1.13;;;23.40;59.20;;;;;;4196002;28;20052;-60
2021/08/23 11:38:12;;;;;;;0.70;0.70;;;23.40;60.10;;;;;;4200908;28;20045;-61
2021/08/23 11:40:35;;;;;;;1.38;0.82;;;23.50;60.00;;;;;;4192480;28;20485;-61
2021/08/23 11:43:00;;;;;;;0.82;0.82;;;23.40;60.80;;;;;;4192846;28;20049;-60
2021/08/23 11:45:24;;;;;;;2.50;0.80;;;23.50;60.70;;;;;;4192944;28;20090;-61
2021/08/23 11:47:50;;;;;;;0.90;0.90;;;23.50;60.30;;;;;;4192508;28;20049;-60
2021/08/23 11:50:15;;;;;;;1.35;1.05;;;23.50;61.00;;;;;;4192193;28;20079;-61
2021/08/23 11:52:37;;;;;;;1.50;0.95;;;23.50;61.30;;;;;;4183156;28;20411;-61
2021/08/23 11:54:59;;;;;;;0.73;0.65;;;23.50;62.70;;;;;;4185176;28;20052;-61
2021/08/23 11:57:23;;;;;;;0.93;0.93;;;23.50;61.00;;;;;;4192505;28;20045;-61
2021/08/23 11:59:53;;;;;;;1.40;1.17;;;23.50;61.20;;;;;;4192431;28;20044;-61
2021/08/23 12:02:15;;;;;;;1.15;1.05;;;23.50;61.10;;;;;;4192413;28;20045;-61
2021/08/23 12:04:37;;;;;;;1.42;0.82;;;23.50;61.10;;;;;;4192335;28;20068;-61
2021/08/23 12:07:00;;;;;;;2.83;1.27;;;23.50;60.90;;;;;;4192323;28;20055;-62
2021/08/23 12:09:23;;;;;;;2.97;0.90;;;23.50;61.90;;;;;;4190635;28;20492;-60
2021/08/23 12:11:45;;;;;;;0.90;0.70;;;23.50;62.10;;;;;;4192652;28;20044;-59
2021/08/23 12:14:17;;;;;;;1.02;1.00;;;23.50;62.30;;;;;;4208573;28;20130;-60
2021/08/23 12:16:39;;;;;;;1.52;0.90;;;23.60;61.40;;;;;;4208723;28;20048;-61
2021/08/23 12:19:07;;;;;;;2.13;1.10;;;23.60;60.90;;;;;;4207160;28;20048;-61
2021/08/23 12:21:31;;;;;;;4.55;0.85;;;23.60;60.00;;;;;;4208288;28;20040;-61
2021/08/23 12:23:56;;;;;;;0.98;0.88;;;23.60;60.60;;;;;;4198849;28;20044;-60
2021/08/23 12:26:25;;;;;;;1.17;0.80;;;23.60;60.30;;;;;;4191136;28;20060;-61
2021/08/23 12:28:48;;;;;;;0.90;0.70;;;23.60;60.80;;;;;;4191865;28;20049;-60